Flight Track Log - Related Links

Times and Time Zones

All times are in EST time to prevent confusion due to time zone crossing. See the SKW4510 flight status page for this flight to view local times or setup timezone preferences in your user account.

Time Position Orientation Groundspeed Altitude Reporting Facility
EST Latitude Longitude Course Direction KTS MPH feet Rate Location/Type
Fri 08:55:40 AM 42.2106 -83.3650 276° West 141 162 1,300  Level Cleveland Center
Fri 08:56:23 AM 42.1836 -83.3864 210° Southwest 185 213 2,700 2,686 Climbing Cleveland Center
Fri 08:57:25 AM 42.1342 -83.4275 212° Southwest 217 250 6,000 3,176 Climbing Cleveland Center
Fri 08:58:00 AM 42.2167 -83.6434 270° West  Level FlightAware
Fri 08:58:22 AM 42.1319 -83.4819 267° West 198 228 9,000  Level Cleveland Center
Fri 08:58:31 AM 42.1344 -83.5033 279° West 196 226 9,800 2,226 Climbing Cleveland Center
Fri 08:59:00 AM 42.2233 -83.7417 276° West  Level FlightAware
Fri 08:59:24 AM 42.1461 -83.5597 286° West 215 247 11,300  Level Cleveland Center
Fri 09:00:00 AM 42.2303 -83.8401 276° West  Level FlightAware
Fri 09:00:26 AM 42.1617 -83.6406 285° West 220 253 13,000  Level Cleveland Center
Fri 09:01:27 AM 42.1814 -83.7442 284° West 235 270 13,900 1,854 Climbing Cleveland Center
Fri 09:02:29 AM 42.1975 -83.8272 285° West 234 269 16,800 1,984 Climbing Cleveland Center
Fri 09:03:31 AM 42.2125 -83.9111 284° West 231 266 18,000 581 Climbing Cleveland Center
Fri 09:04:33 AM 42.2286 -83.9992 284° West 236 272 18,000  Level Cleveland Center
Fri 09:05:34 AM 42.2453 -84.0867 284° West 239 275 18,000  Level Cleveland Center
Fri 09:06:36 AM 42.2608 -84.1722 284° West 239 275 18,000  Level Cleveland Center
Fri 09:07:38 AM 42.2636 -84.2569 273° West 230 265 18,000  Level Cleveland Center
Fri 09:08:40 AM 42.2606 -84.3581 268° West 228 262 18,000  Level Cleveland Center
Fri 09:09:42 AM 42.2594 -84.4447 269° West 228 262 18,000  Level Cleveland Center
Fri 09:10:43 AM 42.2558 -84.5306 267° West 228 262 18,000  Level Cleveland Center
Fri 09:11:45 AM 42.2478 -84.6161 263° West 229 264 18,000  Level Cleveland Center
Fri 09:12:56 AM 42.2419 -84.7228 266° West 232 267 18,000  Level Chicago Center
Fri 09:13:58 AM 42.2403 -84.8100 269° West 233 268 18,000  Level Chicago Center
Fri 09:14:59 AM 42.2403 -84.8978 270° West 235 270 18,000  Level Chicago Center
Fri 09:16:01 AM 42.2394 -84.9853 269° West 235 270 18,000  Level Chicago Center
Fri 09:17:02 AM 42.2375 -85.0739 268° West 236 272 18,000  Level Chicago Center
Fri 09:18:04 AM 42.2097 -85.1528 245° Southwest 232 267 18,000  Level Chicago Center
Fri 09:19:06 AM 42.1800 -85.2317 243° Southwest 235 270 18,000  Level Chicago Center
Fri 09:20:07 AM 42.1458 -85.3242 244° Southwest 231 266 18,000  Level Chicago Center
Fri 09:21:09 AM 42.1169 -85.4019 243° Southwest 231 266 18,000 -585 Level Chicago Center
Fri 09:22:10 AM 42.0878 -85.4786 243° Southwest 230 265 16,800 -1,415 Descending Chicago Center
Fri 09:23:12 AM 42.0583 -85.5561 243° Southwest 232 267 15,100 -1,645 Descending Chicago Center
Fri 09:24:14 AM 42.0267 -85.6375 242° Southwest 240 276 13,400 -1,707 Descending Chicago Center
Fri 09:25:15 AM 41.9803 -85.7106 230° Southwest 240 276 11,600 -1,171 Descending Chicago Center
Fri 09:26:17 AM 41.9364 -85.7700 225° Southwest 229 264 11,000 -774 Descending Chicago Center
Fri 09:27:19 AM 41.8978 -85.8236 226° Southwest 211 243 10,000 -1,366 Descending Chicago Center
Fri 09:28:20 AM 41.8600 -85.8758 226° Southwest 201 231 8,200 -1,756 Descending Chicago Center
Fri 09:29:22 AM 41.8217 -85.9286 226° Southwest 199 229 6,400 -1,902 Descending Chicago Center
Fri 09:30:23 AM 41.7744 -85.9931 226° Southwest 201 231 4,300 -1,122 Descending Chicago Center
Fri 09:31:25 AM 41.7356 -86.0472 226° Southwest 203 234 4,100 -145 Descending Chicago Center
Fri 09:32:27 AM 41.7067 -86.1050 236° Southwest 203 234 4,000 -537 Descending Chicago Center
Fri 09:33:28 AM 41.7061 -86.1644 269° West 174 200 3,000 -878 Descending Chicago Center
Fri 09:34:30 AM 41.7050 -86.2194 268° West 159 183 2,200 -634 Descending Chicago Center
Fri 09:35:31 AM 41.7042 -86.2781 269° West 151 174 1,700 -492 Descending Chicago Center

Login

Don't have an account? Register now (free) for customized features, flight alerts, and more!